Time;durP1;ratioP1;P1;durP2;ratioP2;P2;SDS_P1;SDS_P2;PMS_P1;PMS_P2;Temp;Humidity;BMP_temperature;BMP_pressure;BME280_temperature;BME280_humidity;BME280_pressure;Samples;Min_cycle;Max_cycle;Signal;HPM_P1;HPM_P2
2023/04/05 00:02:09;;;;;;;5.67;3.90;;;10.50;82.30;;;;;;5020994;28;20482;-88
2023/04/05 00:04:48;;;;;;;6.37;3.80;;;10.50;82.40;;;;;;5037970;28;20510;-88
2023/04/05 00:07:16;;;;;;;8.57;3.93;;;10.50;82.40;;;;;;5004870;28;20419;-88
2023/04/05 00:09:46;;;;;;;6.43;3.67;;;10.50;82.50;;;;;;5037177;28;20460;-89
2023/04/05 00:12:12;;;;;;;7.63;3.87;;;10.40;82.30;;;;;;5020547;28;20495;-88
2023/04/05 00:14:38;;;;;;;4.83;3.60;;;10.40;82.40;;;;;;5036576;28;20510;-89
2023/04/05 00:17:05;;;;;;;5.00;3.67;;;10.40;82.40;;;;;;4987719;28;20468;-88
2023/04/05 00:19:35;;;;;;;5.33;3.80;;;10.40;82.40;;;;;;4986717;28;20428;-87
2023/04/05 00:22:01;;;;;;;8.40;4.00;;;10.40;82.50;;;;;;5020530;28;20427;-88
2023/04/05 00:24:29;;;;;;;7.37;3.67;;;10.40;82.60;;;;;;4993743;28;20463;-88
2023/04/05 00:26:56;;;;;;;4.60;3.70;;;10.30;82.50;;;;;;4984945;28;20425;-88
2023/04/05 00:29:22;;;;;;;5.47;4.10;;;10.30;82.50;;;;;;4992832;28;20482;-88
2023/04/05 00:31:50;;;;;;;5.97;4.00;;;10.30;82.40;;;;;;5035500;28;20436;-88
2023/04/05 00:34:18;;;;;;;6.90;4.03;;;10.30;82.40;;;;;;5020463;28;20495;-88
2023/04/05 00:36:44;;;;;;;4.10;3.50;;;10.30;82.40;;;;;;5036650;28;20478;-88
2023/04/05 00:39:10;;;;;;;5.30;3.80;;;10.30;82.30;;;;;;5020226;28;20872;-87
2023/04/05 00:41:36;;;;;;;4.00;3.50;;;10.30;82.30;;;;;;5003647;28;20474;-88
2023/04/05 00:44:02;;;;;;;5.73;4.10;;;10.30;82.30;;;;;;4999685;28;20444;-88
2023/04/05 00:46:28;;;;;;;7.67;3.70;;;10.20;82.30;;;;;;5000407;28;20490;-87
2023/04/05 00:48:57;;;;;;;4.90;3.60;;;10.20;82.30;;;;;;5016980;28;20421;-86
2023/04/05 00:51:23;;;;;;;6.67;3.93;;;10.20;82.40;;;;;;5017632;28;20417;-88
2023/04/05 00:53:51;;;;;;;6.80;3.67;;;10.20;82.50;;;;;;5018874;28;20774;-88
2023/04/05 00:56:20;;;;;;;7.73;4.33;;;10.20;82.50;;;;;;5014390;28;20463;-89
2023/04/05 00:58:47;;;;;;;6.50;4.10;;;10.10;82.50;;;;;;5007650;28;20743;-89
2023/04/05 01:01:21;;;;;;;6.07;4.00;;;10.10;82.50;;;;;;5016377;28;20463;-88
2023/04/05 01:04:06;;;;;;;6.57;4.10;;;10.10;82.40;;;;;;4983801;28;20400;-87
2023/04/05 01:06:32;;;;;;;6.53;4.33;;;10.10;82.50;;;;;;4983750;28;20457;-88
2023/04/05 01:09:31;;;;;;;10.33;4.90;;;10.10;82.60;;;;;;5005482;28;20438;-88
2023/04/05 01:12:06;;;;;;;6.30;4.20;;;10.10;82.60;;;;;;5005937;28;20427;-88
2023/04/05 01:14:41;;;;;;;8.67;4.23;;;10.10;82.60;;;;;;5002857;28;20559;-88
2023/04/05 01:17:08;;;;;;;6.77;4.30;;;10.00;82.50;;;;;;5016785;28;20794;-88
2023/04/05 01:19:40;;;;;;;6.37;4.07;;;10.10;82.70;;;;;;5002966;28;20452;-88
2023/04/05 01:22:42;;;;;;;6.43;3.80;;;10.00;82.60;;;;;;5016570;28;20184;-87
2023/04/05 01:25:21;;;;;;;4.93;3.87;;;10.00;82.60;;;;;;5005373;28;21030;-87
2023/04/05 01:28:08;;;;;;;5.00;3.57;;;10.00;82.60;;;;;;5034568;28;20446;-89
2023/04/05 01:31:17;;;;;;;6.17;3.97;;;10.00;82.70;;;;;;5012158;28;20819;-86
2023/04/05 01:33:47;;;;;;;9.23;4.33;;;9.90;83.90;;;;;;5003465;28;20774;-88
2023/04/05 01:36:21;;;;;;;7.90;4.30;;;9.90;83.90;;;;;;5009130;28;20464;-88
2023/04/05 01:38:49;;;;;;;5.20;3.70;;;9.90;84.00;;;;;;5028869;28;20482;-88
2023/04/05 01:41:15;;;;;;;4.93;4.10;;;9.90;84.00;;;;;;4999514;28;20519;-88
2023/04/05 01:43:43;;;;;;;5.17;4.00;;;9.90;84.10;;;;;;4999097;28;20536;-89
2023/04/05 01:46:09;;;;;;;6.50;4.50;;;9.90;84.10;;;;;;5021564;28;20462;-88
2023/04/05 01:48:35;;;;;;;6.37;4.40;;;9.90;84.20;;;;;;5019053;28;20432;-88
2023/04/05 01:51:01;;;;;;;6.90;4.40;;;9.90;84.20;;;;;;5014784;28;20521;-88
2023/04/05 01:53:26;;;;;;;4.40;3.93;;;9.80;84.10;;;;;;4999294;28;20263;-88
2023/04/05 01:56:00;;;;;;;6.60;4.10;;;9.80;84.10;;;;;;5018688;28;21042;-88
2023/04/05 01:58:28;;;;;;;6.13;4.07;;;9.80;84.20;;;;;;5052255;28;20430;-88
2023/04/05 02:00:57;;;;;;;6.27;4.73;;;9.80;84.20;;;;;;5010604;28;20416;-89
2023/04/05 02:03:25;;;;;;;6.47;4.40;;;9.80;84.20;;;;;;5002432;28;20520;-88
2023/04/05 02:05:52;;;;;;;5.50;4.20;;;9.80;84.20;;;;;;5018619;28;20423;-88
2023/04/05 02:08:18;;;;;;;8.40;4.70;;;9.80;84.20;;;;;;5002297;28;20458;-88
2023/04/05 02:10:44;;;;;;;5.87;5.10;;;9.70;84.10;;;;;;4998982;28;20586;-88
2023/04/05 02:13:12;;;;;;;9.70;4.40;;;9.70;84.10;;;;;;4999136;28;20914;-88
2023/04/05 02:15:38;;;;;;;6.00;4.63;;;9.70;84.20;;;;;;5032972;28;20941;-88
2023/04/05 02:18:06;;;;;;;6.93;4.87;;;9.70;84.20;;;;;;5018389;28;20495;-88
2023/04/05 02:20:33;;;;;;;8.40;4.83;;;9.70;84.30;;;;;;5002005;28;20494;-88
2023/04/05 02:23:01;;;;;;;4.60;3.90;;;9.70;84.40;;;;;;5015107;28;20428;-88
2023/04/05 02:25:28;;;;;;;5.27;4.40;;;9.70;84.40;;;;;;5009200;28;20447;-88
2023/04/05 02:27:53;;;;;;;7.00;4.50;;;9.60;84.40;;;;;;5019289;28;20466;-88
2023/04/05 02:30:20;;;;;;;6.33;4.40;;;9.70;84.50;;;;;;5036971;28;20451;-88
2023/04/05 02:32:48;;;;;;;9.30;4.50;;;9.60;84.30;;;;;;4982283;28;20524;-88
2023/04/05 02:35:16;;;;;;;5.73;4.13;;;9.60;84.30;;;;;;4998410;28;20870;-86
2023/04/05 02:37:44;;;;;;;4.60;3.90;;;9.60;84.40;;;;;;5033722;28;20201;-88
2023/04/05 02:40:13;;;;;;;7.10;4.60;;;9.60;84.40;;;;;;5001692;28;20791;-88
2023/04/05 02:42:40;;;;;;;6.03;4.47;;;9.60;84.40;;;;;;5001711;28;20429;-89
2023/04/05 02:45:08;;;;;;;5.27;4.23;;;9.60;84.40;;;;;;5001790;28;20419;-88
2023/04/05 02:47:37;;;;;;;7.37;4.30;;;9.50;84.20;;;;;;5014553;28;20531;-88
2023/04/05 02:50:06;;;;;;;6.53;4.30;;;9.60;84.40;;;;;;5033702;28;20489;-88
2023/04/05 02:52:37;;;;;;;8.47;5.30;;;9.50;84.30;;;;;;5017908;28;20903;-88
2023/04/05 02:55:05;;;;;;;5.67;4.10;;;9.50;84.30;;;;;;5016631;28;20427;-88
2023/04/05 02:57:36;;;;;;;4.87;3.80;;;9.50;84.30;;;;;;4998398;28;20818;-88
2023/04/05 03:00:12;;;;;;;7.73;4.87;;;9.50;84.30;;;;;;5010101;28;20422;-87
2023/04/05 03:02:41;;;;;;;6.80;4.27;;;9.50;84.30;;;;;;5021372;28;20571;-88
2023/04/05 03:05:08;;;;;;;5.50;4.20;;;9.40;84.30;;;;;;5019116;28;20532;-88
2023/04/05 03:07:34;;;;;;;5.70;3.87;;;9.50;84.40;;;;;;5001422;28;20446;-89
2023/04/05 03:10:07;;;;;;;6.40;4.30;;;9.40;84.40;;;;;;5034074;28;20435;-89
2023/04/05 03:12:35;;;;;;;6.30;4.57;;;9.40;84.40;;;;;;5013121;28;20506;-88
2023/04/05 03:15:01;;;;;;;10.83;4.40;;;9.40;84.40;;;;;;5014380;28;20968;-88
2023/04/05 03:17:37;;;;;;;6.80;4.90;;;9.40;84.40;;;;;;5016722;28;21062;-80
2023/04/05 03:20:10;;;;;;;6.57;4.40;;;9.30;84.30;;;;;;4992627;28;20917;-80
2023/04/05 03:22:40;;;;;;;6.27;4.40;;;9.30;84.30;;;;;;4981819;28;20515;-80
2023/04/05 03:25:09;;;;;;;7.40;3.90;;;9.30;84.40;;;;;;5013432;28;20472;-80
2023/04/05 03:27:43;;;;;;;5.47;4.30;;;9.30;84.40;;;;;;5013920;28;20414;-80
2023/04/05 03:30:19;;;;;;;5.37;3.93;;;9.30;84.50;;;;;;4997540;28;20855;-80
2023/04/05 03:32:52;;;;;;;4.53;4.07;;;9.30;84.50;;;;;;5014772;28;20419;-79
2023/04/05 03:35:35;;;;;;;4.83;3.33;;;9.30;84.60;;;;;;5016832;28;20462;-80
2023/04/05 03:38:02;;;;;;;4.40;3.60;;;9.20;84.50;;;;;;5014812;28;20501;-80
2023/04/05 03:40:31;;;;;;;4.67;3.90;;;9.20;84.60;;;;;;5016485;28;20471;-81
2023/04/05 03:42:57;;;;;;;4.63;3.77;;;9.20;84.50;;;;;;5016597;28;20452;-80
2023/04/05 03:45:28;;;;;;;4.83;4.00;;;9.20;84.60;;;;;;5014033;28;20437;-80
2023/04/05 03:47:55;;;;;;;8.07;4.90;;;9.20;84.60;;;;;;5012523;28;20425;-80
2023/04/05 03:50:21;;;;;;;5.63;3.90;;;9.20;84.60;;;;;;5030762;28;20427;-80
2023/04/05 03:52:49;;;;;;;10.83;4.40;;;9.20;84.60;;;;;;5020909;28;20755;-80
2023/04/05 03:55:20;;;;;;;5.00;3.80;;;9.20;84.60;;;;;;5013482;28;20966;-79
2023/04/05 03:57:48;;;;;;;6.73;3.97;;;9.10;84.50;;;;;;5000364;28;20470;-79
2023/04/05 04:00:30;;;;;;;6.67;4.23;;;9.10;84.60;;;;;;5015983;28;20431;-80
2023/04/05 04:03:14;;;;;;;5.30;4.30;;;9.10;84.60;;;;;;5003792;28;20443;-80
2023/04/05 04:06:25;;;;;;;6.20;4.00;;;9.10;84.70;;;;;;5025699;28;20514;-79
2023/04/05 04:09:01;;;;;;;4.80;3.70;;;9.10;84.70;;;;;;5001308;28;20535;-80
2023/04/05 04:11:31;;;;;;;5.43;3.90;;;9.10;84.90;;;;;;5009158;28;20427;-80
2023/04/05 04:14:01;;;;;;;4.87;4.10;;;9.00;84.70;;;;;;5018950;28;20536;-80
2023/04/05 04:16:53;;;;;;;7.70;3.97;;;9.00;84.80;;;;;;5036389;28;20458;-80
2023/04/05 04:19:55;;;;;;;4.60;3.80;;;9.00;84.80;;;;;;4984567;28;20431;-80
2023/04/05 04:22:44;;;;;;;5.83;4.03;;;9.00;84.90;;;;;;5025256;28;20442;-80
2023/04/05 04:25:31;;;;;;;4.60;4.07;;;9.00;85.00;;;;;;5013715;28;20432;-80
2023/04/05 04:28:18;;;;;;;7.37;4.60;;;9.00;85.00;;;;;;5030231;28;20450;-79
2023/04/05 04:31:03;;;;;;;5.20;3.63;;;8.90;84.90;;;;;;5052862;28;20553;-79
2023/04/05 04:33:50;;;;;;;5.10;4.37;;;8.90;84.90;;;;;;5039234;28;20430;-80
2023/04/05 04:36:38;;;;;;;4.90;3.73;;;8.90;84.90;;;;;;5040195;28;20481;-79
2023/04/05 04:39:38;;;;;;;6.60;4.20;;;8.90;85.00;;;;;;5020331;28;20439;-79
2023/04/05 04:42:23;;;;;;;5.43;4.23;;;8.90;85.10;;;;;;5027209;28;20486;-79
2023/04/05 04:45:16;;;;;;;4.30;3.90;;;8.90;85.20;;;;;;4999286;28;20888;-80
2023/04/05 04:47:48;;;;;;;5.00;4.03;;;8.80;85.20;;;;;;5027431;28;20456;-81
2023/04/05 04:50:19;;;;;;;6.37;4.53;;;8.80;85.30;;;;;;5015438;28;20514;-79
2023/04/05 04:52:46;;;;;;;6.50;4.20;;;8.80;85.30;;;;;;4999431;28;20462;-80
2023/04/05 04:55:16;;;;;;;7.17;4.40;;;8.80;85.30;;;;;;5001632;28;20462;-81
2023/04/05 04:57:53;;;;;;;6.10;5.00;;;8.80;85.40;;;;;;5035464;28;20404;-80
2023/04/05 05:00:22;;;;;;;5.20;3.80;;;8.80;85.60;;;;;;5005623;28;20851;-80
2023/04/05 05:02:51;;;;;;;6.27;4.60;;;8.80;85.50;;;;;;5015308;28;20405;-79
2023/04/05 05:05:25;;;;;;;5.27;4.37;;;8.80;85.60;;;;;;4983476;28;20420;-80
2023/04/05 05:07:51;;;;;;;8.47;4.67;;;8.70;85.50;;;;;;5002608;28;20466;-79
2023/04/05 05:10:17;;;;;;;5.00;4.10;;;8.70;85.60;;;;;;5015453;28;20947;-80
2023/04/05 05:12:44;;;;;;;6.57;4.33;;;8.70;85.70;;;;;;5003627;28;20784;-79
2023/04/05 05:15:14;;;;;;;5.37;4.87;;;8.70;85.70;;;;;;5017825;28;21144;-80
2023/04/05 05:17:40;;;;;;;8.60;4.50;;;8.70;85.70;;;;;;5031960;28;20413;-80
2023/04/05 05:20:10;;;;;;;8.23;4.57;;;8.70;85.70;;;;;;4999162;28;20752;-80
2023/04/05 05:22:39;;;;;;;6.17;4.20;;;8.60;85.70;;;;;;5019989;28;20465;-79
2023/04/05 05:25:06;;;;;;;14.47;4.30;;;8.60;85.70;;;;;;5018563;28;20474;-80
2023/04/05 05:27:34;;;;;;;4.90;4.20;;;8.60;86.50;;;;;;5020254;28;21200;-80
2023/04/05 05:30:03;;;;;;;7.57;4.27;;;8.60;85.80;;;;;;5005460;28;20423;-80
2023/04/05 05:32:31;;;;;;;5.93;4.60;;;8.60;85.90;;;;;;5007530;28;20495;-80
2023/04/05 05:34:57;;;;;;;5.87;4.70;;;8.60;85.90;;;;;;5016696;28;20557;-81
2023/04/05 05:37:33;;;;;;;6.17;4.67;;;8.60;86.00;;;;;;5031480;28;20466;-80
2023/04/05 05:39:59;;;;;;;9.90;4.63;;;8.60;86.00;;;;;;5018215;28;20441;-79
2023/04/05 05:42:31;;;;;;;10.83;4.30;;;8.60;86.10;;;;;;5018346;28;20429;-80
2023/04/05 05:45:00;;;;;;;5.00;4.10;;;8.60;86.20;;;;;;5035165;28;20404;-79
2023/04/05 05:47:28;;;;;;;5.90;4.03;;;8.50;86.20;;;;;;5035285;28;20506;-79
2023/04/05 05:49:55;;;;;;;5.57;4.17;;;8.50;86.40;;;;;;5004690;28;20735;-79
2023/04/05 05:52:23;;;;;;;6.17;4.40;;;8.50;86.30;;;;;;5017599;28;20430;-80
2023/04/05 05:54:49;;;;;;;5.27;4.07;;;8.50;86.30;;;;;;5013216;28;20927;-80
2023/04/05 05:57:15;;;;;;;7.40;4.63;;;8.50;86.30;;;;;;4997054;28;20571;-79
2023/04/05 05:59:43;;;;;;;6.00;4.03;;;8.50;86.40;;;;;;5014586;28;20440;-80
2023/04/05 06:02:09;;;;;;;5.50;4.50;;;8.40;86.50;;;;;;5000480;28;20460;-80
2023/04/05 06:04:40;;;;;;;6.33;4.40;;;8.40;86.60;;;;;;5000145;28;20465;-78
2023/04/05 06:07:09;;;;;;;6.77;5.13;;;8.40;86.70;;;;;;4980698;28;20563;-79
2023/04/05 06:09:36;;;;;;;6.10;4.57;;;8.50;86.90;;;;;;4980011;28;20922;-80
2023/04/05 06:12:04;;;;;;;5.97;4.20;;;8.40;86.90;;;;;;4979937;28;20439;-80
2023/04/05 06:14:34;;;;;;;10.40;4.47;;;8.40;87.00;;;;;;4980034;28;20425;-80
2023/04/05 06:17:00;;;;;;;6.20;4.50;;;8.40;87.20;;;;;;4960873;28;20590;-79
2023/04/05 06:19:28;;;;;;;6.77;4.60;;;8.40;87.30;;;;;;4993844;28;20944;-79
2023/04/05 06:21:54;;;;;;;8.40;4.37;;;8.40;87.30;;;;;;4977179;28;20535;-79
2023/04/05 06:24:20;;;;;;;8.10;4.77;;;8.40;87.40;;;;;;5007448;28;20426;-79
2023/04/05 06:26:50;;;;;;;7.77;5.00;;;8.40;87.60;;;;;;4945196;28;21097;-79
2023/04/05 06:29:16;;;;;;;7.60;5.00;;;8.40;87.80;;;;;;5000069;28;20455;-79
2023/04/05 06:31:46;;;;;;;6.33;4.27;;;8.30;87.80;;;;;;5024042;28;20534;-79
2023/04/05 06:34:14;;;;;;;5.63;4.57;;;8.40;88.00;;;;;;4997579;28;20516;-79
2023/04/05 06:36:42;;;;;;;7.57;4.97;;;8.30;88.10;;;;;;5011480;28;20483;-79
2023/04/05 06:39:10;;;;;;;5.80;4.50;;;8.30;88.20;;;;;;5018115;28;20433;-79
2023/04/05 06:41:36;;;;;;;5.20;4.40;;;8.30;88.30;;;;;;5000506;28;20496;-79
2023/04/05 06:44:02;;;;;;;7.60;5.20;;;8.30;88.40;;;;;;5016462;28;21008;-79
2023/04/05 06:46:33;;;;;;;7.93;5.23;;;8.30;88.50;;;;;;5016732;28;20431;-78
2023/04/05 06:48:59;;;;;;;11.93;4.43;;;8.30;88.60;;;;;;5025461;28;20420;-79
2023/04/05 06:51:28;;;;;;;7.87;5.00;;;8.30;88.80;;;;;;5012629;28;20537;-78
2023/04/05 06:53:54;;;;;;;7.83;4.80;;;8.30;88.80;;;;;;5008748;28;20450;-79
2023/04/05 06:56:25;;;;;;;5.10;4.33;;;8.30;88.90;;;;;;5013043;28;20456;-79
2023/04/05 06:58:54;;;;;;;7.90;4.90;;;8.30;89.10;;;;;;4981892;28;20762;-80
2023/04/05 07:01:25;;;;;;;5.10;3.90;;;8.30;89.10;;;;;;5012448;28;20442;-79
2023/04/05 07:03:56;;;;;;;8.60;4.47;;;8.30;89.10;;;;;;4988382;28;20755;-79
2023/04/05 07:06:24;;;;;;;6.60;4.27;;;8.30;89.20;;;;;;5014231;28;20461;-80
2023/04/05 07:08:50;;;;;;;8.23;4.93;;;8.30;89.30;;;;;;5015473;28;20591;-79
2023/04/05 07:11:15;;;;;;;11.40;5.60;;;8.30;89.30;;;;;;5043357;28;20187;-79
2023/04/05 07:13:41;;;;;;;7.77;4.87;;;8.30;89.30;;;;;;5034142;28;20424;-81
2023/04/05 07:16:07;;;;;;;5.40;4.60;;;8.30;89.40;;;;;;5006858;28;20946;-81
2023/04/05 07:18:35;;;;;;;8.37;4.50;;;8.30;89.40;;;;;;5014232;28;20184;-80
2023/04/05 07:21:04;;;;;;;5.10;4.00;;;8.30;89.40;;;;;;4999133;28;20501;-81
2023/04/05 07:23:30;;;;;;;6.80;5.07;;;8.30;89.40;;;;;;5012844;28;20486;-81
2023/04/05 07:26:06;;;;;;;7.70;4.53;;;8.30;89.40;;;;;;5023512;28;20478;-81
2023/04/05 07:28:34;;;;;;;8.47;4.50;;;8.30;89.40;;;;;;5023306;28;20909;-79
2023/04/05 07:31:01;;;;;;;4.93;4.10;;;8.30;89.50;;;;;;5046304;28;20901;-81
2023/04/05 07:33:27;;;;;;;5.90;5.10;;;8.30;89.50;;;;;;5031950;28;20451;-80
2023/04/05 07:35:54;;;;;;;6.50;4.10;;;8.30;89.60;;;;;;5000160;28;20863;-80
2023/04/05 07:38:20;;;;;;;8.30;4.47;;;8.30;89.50;;;;;;4984104;28;20484;-81
2023/04/05 07:40:50;;;;;;;6.87;4.13;;;8.30;89.50;;;;;;5012751;28;20790;-78
2023/04/05 07:43:19;;;;;;;6.00;4.20;;;8.30;89.40;;;;;;5016470;28;20948;-79
2023/04/05 07:45:45;;;;;;;5.73;4.80;;;8.30;89.40;;;;;;5027543;28;20457;-81
2023/04/05 07:48:11;;;;;;;9.17;4.80;;;8.30;89.40;;;;;;5019792;28;20457;-80
2023/04/05 07:50:41;;;;;;;5.97;4.00;;;8.40;89.50;;;;;;5015670;28;20522;-80
2023/04/05 07:53:07;;;;;;;5.67;3.93;;;8.30;89.50;;;;;;5005935;28;20424;-80
2023/04/05 07:55:33;;;;;;;8.13;4.03;;;8.30;89.40;;;;;;5025598;28;20500;-78
2023/04/05 07:58:01;;;;;;;7.83;4.63;;;8.30;89.50;;;;;;5047503;28;20415;-79
2023/04/05 08:00:59;;;;;;;4.07;3.47;;;8.40;89.50;;;;;;5025961;28;20438;-80
2023/04/05 08:03:29;;;;;;;6.00;4.10;;;8.40;89.60;;;;;;5042672;28;20762;-80
2023/04/05 08:05:55;;;;;;;7.27;4.80;;;8.40;89.60;;;;;;5025403;28;20514;-80
2023/04/05 08:08:24;;;;;;;4.67;3.53;;;8.40;89.50;;;;;;5005284;28;20450;-80
2023/04/05 08:10:52;;;;;;;10.60;4.60;;;8.40;89.50;;;;;;5036073;28;20435;-80
2023/04/05 08:13:18;;;;;;;6.63;4.23;;;8.40;89.40;;;;;;5015371;28;20900;-80
2023/04/05 08:15:46;;;;;;;7.57;5.23;;;8.40;89.30;;;;;;5022177;28;20466;-80
2023/04/05 08:18:12;;;;;;;5.37;4.17;;;8.40;89.40;;;;;;5024118;28;20173;-80
2023/04/05 08:20:39;;;;;;;6.30;4.10;;;8.40;89.30;;;;;;5006091;28;21069;-80
2023/04/05 08:23:10;;;;;;;5.80;4.27;;;8.40;89.40;;;;;;5017086;28;20185;-77
2023/04/05 08:25:36;;;;;;;6.00;4.57;;;8.40;89.40;;;;;;4999849;28;20459;-80
2023/04/05 08:28:04;;;;;;;10.70;4.50;;;8.40;89.50;;;;;;5013151;28;20570;-80
2023/04/05 08:30:30;;;;;;;5.83;4.33;;;8.40;89.30;;;;;;5003553;28;20921;-81
2023/04/05 08:32:56;;;;;;;7.63;4.40;;;8.50;89.40;;;;;;4999088;28;20900;-80
2023/04/05 08:35:22;;;;;;;4.97;4.07;;;8.50;89.10;;;;;;5015956;28;20462;-80
2023/04/05 08:37:51;;;;;;;5.23;3.70;;;8.50;89.00;;;;;;5010654;28;20460;-80
2023/04/05 08:40:17;;;;;;;5.73;4.30;;;8.50;89.20;;;;;;5035639;28;20419;-79
2023/04/05 08:42:58;;;;;;;5.47;4.00;;;8.50;89.30;;;;;;5024800;28;20905;-79
2023/04/05 08:45:28;;;;;;;5.80;3.70;;;8.50;89.20;;;;;;5000805;28;20460;-81
2023/04/05 08:47:56;;;;;;;9.23;4.50;;;8.60;89.30;;;;;;5000133;28;20767;-81
2023/04/05 08:50:23;;;;;;;5.50;4.23;;;8.60;89.30;;;;;;4998823;28;20879;-80
2023/04/05 08:52:49;;;;;;;5.23;4.23;;;8.60;89.20;;;;;;5007274;28;20885;-81
2023/04/05 08:55:15;;;;;;;6.90;4.40;;;8.60;88.70;;;;;;5034799;28;20438;-80
2023/04/05 08:57:52;;;;;;;4.53;3.57;;;8.60;88.20;;;;;;5018100;28;20428;-79
2023/04/05 09:00:19;;;;;;;4.07;3.67;;;8.60;88.10;;;;;;5029492;28;20465;-80
2023/04/05 09:02:49;;;;;;;4.20;3.80;;;8.70;88.60;;;;;;5018258;28;20494;-81
2023/04/05 09:05:47;;;;;;;5.80;3.83;;;8.70;88.80;;;;;;5018735;28;20473;-78
2023/04/05 09:08:46;;;;;;;5.03;4.20;;;8.80;89.20;;;;;;5017671;28;20768;-80
2023/04/05 09:11:13;;;;;;;5.57;3.77;;;8.80;89.10;;;;;;5015980;28;20491;-80
2023/04/05 09:13:41;;;;;;;4.20;3.80;;;8.80;89.00;;;;;;5029883;28;20466;-80
2023/04/05 09:16:10;;;;;;;4.20;3.77;;;8.80;89.00;;;;;;5017533;28;20524;-80
2023/04/05 09:18:35;;;;;;;5.00;4.20;;;8.80;89.00;;;;;;5034385;28;20188;-80
2023/04/05 09:21:04;;;;;;;6.57;4.90;;;8.80;89.00;;;;;;5001712;28;20444;-79
2023/04/05 09:23:32;;;;;;;5.63;4.23;;;8.90;89.00;;;;;;5021994;28;20181;-79
2023/04/05 09:26:00;;;;;;;5.73;4.00;;;8.90;88.60;;;;;;4998430;28;20440;-79
2023/04/05 09:28:41;;;;;;;4.47;3.90;;;8.90;88.50;;;;;;5026630;28;20515;-79
2023/04/05 09:31:39;;;;;;;5.87;4.07;;;9.00;88.60;;;;;;5028118;28;20474;-80
2023/04/05 09:34:19;;;;;;;6.20;4.60;;;9.00;88.00;;;;;;5021946;28;20445;-80
2023/04/05 09:36:50;;;;;;;7.17;5.07;;;9.00;88.30;;;;;;5047689;28;20451;-80
2023/04/05 09:39:22;;;;;;;8.90;5.73;;;9.00;88.40;;;;;;5024236;28;20428;-80
2023/04/05 09:42:10;;;;;;;5.93;4.27;;;9.10;88.50;;;;;;5011358;28;20467;-79
2023/04/05 09:45:00;;;;;;;5.27;4.30;;;9.10;88.70;;;;;;5018105;28;20396;-78
2023/04/05 09:47:33;;;;;;;4.53;4.13;;;9.10;88.70;;;;;;5032936;28;20499;-78
2023/04/05 09:50:15;;;;;;;6.57;4.77;;;9.20;88.80;;;;;;5005873;28;20439;-78
2023/04/05 09:52:42;;;;;;;5.00;4.20;;;9.20;88.90;;;;;;5000655;28;20770;-78
2023/04/05 09:55:09;;;;;;;6.50;4.03;;;9.20;88.50;;;;;;5033689;28;20427;-78
2023/04/05 09:57:40;;;;;;;6.37;4.07;;;9.20;88.20;;;;;;5028042;28;20444;-78
2023/04/05 10:00:31;;;;;;;4.57;4.13;;;9.30;88.20;;;;;;5036109;28;20400;-78
2023/04/05 10:03:04;;;;;;;8.73;4.93;;;9.30;88.00;;;;;;4999198;28;20467;-79
2023/04/05 10:05:31;;;;;;;6.57;4.37;;;9.40;88.10;;;;;;4981155;28;20916;-78
2023/04/05 10:07:58;;;;;;;6.23;4.57;;;9.40;88.10;;;;;;4998079;28;20749;-78
2023/04/05 10:10:24;;;;;;;6.90;5.17;;;9.40;88.00;;;;;;4997320;28;20452;-79
2023/04/05 10:12:52;;;;;;;5.10;4.60;;;9.40;87.60;;;;;;5021800;28;20452;-79
2023/04/05 10:15:18;;;;;;;4.77;4.20;;;9.50;87.60;;;;;;5014377;28;20462;-79
2023/04/05 10:18:05;;;;;;;9.70;5.13;;;9.50;87.30;;;;;;5016892;28;20447;-79
2023/04/05 10:20:39;;;;;;;7.20;4.47;;;9.60;87.30;;;;;;5014618;28;20431;-78
2023/04/05 10:23:06;;;;;;;4.93;4.43;;;9.60;86.60;;;;;;5017112;28;20434;-79
2023/04/05 10:26:00;;;;;;;5.73;4.70;;;9.60;86.70;;;;;;5017050;28;20434;-80
2023/04/05 10:28:33;;;;;;;6.47;4.30;;;9.60;86.60;;;;;;5014586;28;20437;-78
2023/04/05 10:31:17;;;;;;;5.20;4.70;;;9.70;86.60;;;;;;5029564;28;20508;-78
2023/04/05 10:33:46;;;;;;;5.47;4.10;;;9.70;86.60;;;;;;5016880;28;20422;-79
2023/04/05 10:36:37;;;;;;;11.57;4.90;;;9.80;86.50;;;;;;5033103;28;20471;-80
2023/04/05 10:39:23;;;;;;;7.60;4.97;;;9.80;86.70;;;;;;5032837;28;20439;-79
2023/04/05 10:41:56;;;;;;;6.90;4.60;;;9.80;86.90;;;;;;4997000;28;20412;-79
2023/04/05 10:44:22;;;;;;;5.63;4.63;;;9.90;86.90;;;;;;5013294;28;20425;-79
2023/04/05 10:46:52;;;;;;;5.60;4.13;;;9.90;86.80;;;;;;4997314;28;20432;-79
2023/04/05 10:49:30;;;;;;;6.07;5.07;;;9.90;86.50;;;;;;5013447;28;20431;-78
2023/04/05 10:51:59;;;;;;;7.10;4.40;;;10.00;85.30;;;;;;5032454;28;20814;-79
2023/04/05 10:54:28;;;;;;;4.60;4.17;;;10.00;85.10;;;;;;4999710;28;20918;-78
2023/04/05 10:56:55;;;;;;;4.90;4.00;;;10.00;84.90;;;;;;5017545;28;20799;-78
2023/04/05 10:59:29;;;;;;;5.03;4.53;;;10.10;84.90;;;;;;5016179;28;20447;-79
2023/04/05 11:02:01;;;;;;;8.17;4.80;;;10.10;84.70;;;;;;5053617;28;20414;-79
2023/04/05 11:04:27;;;;;;;5.73;4.43;;;10.20;84.80;;;;;;5029535;28;20442;-79
2023/04/05 11:07:16;;;;;;;7.00;5.10;;;10.20;84.40;;;;;;5023458;28;20461;-78
2023/04/05 11:09:51;;;;;;;5.07;4.53;;;10.20;83.10;;;;;;5037237;28;20811;-78
2023/04/05 11:12:17;;;;;;;5.40;4.33;;;10.30;82.50;;;;;;5034123;28;20534;-79
2023/04/05 11:14:43;;;;;;;5.37;4.87;;;10.30;82.00;;;;;;5045821;28;20443;-79
2023/04/05 11:17:26;;;;;;;7.13;5.30;;;10.30;81.40;;;;;;5042419;28;20471;-79
2023/04/05 11:20:03;;;;;;;5.57;4.70;;;10.40;81.30;;;;;;5032608;28;20534;-79
2023/04/05 11:22:31;;;;;;;5.93;4.60;;;10.40;80.80;;;;;;5009182;28;20497;-81
2023/04/05 11:25:01;;;;;;;5.20;4.00;;;10.40;81.60;;;;;;5003362;28;20444;-80
2023/04/05 11:27:29;;;;;;;6.43;4.93;;;10.50;82.50;;;;;;5019648;28;20450;-80
2023/04/05 11:29:58;;;;;;;7.53;5.43;;;10.50;82.30;;;;;;5025084;28;20439;-79
2023/04/05 11:32:39;;;;;;;7.10;5.47;;;10.60;80.20;;;;;;4999822;28;20500;-88
2023/04/05 11:35:21;;;;;;;7.53;5.33;;;10.60;79.00;;;;;;4983620;28;20511;-88
2023/04/05 11:38:00;;;;;;;7.93;4.67;;;10.70;79.40;;;;;;4991425;28;20541;-89
2023/04/05 11:40:31;;;;;;;5.73;4.77;;;10.70;80.40;;;;;;5003351;28;20456;-91
2023/04/05 11:43:11;;;;;;;6.33;4.67;;;10.70;81.40;;;;;;5018732;28;20427;-90
2023/04/05 11:45:40;;;;;;;6.63;4.23;;;10.70;82.50;;;;;;4987056;28;20482;-89
2023/04/05 11:48:10;;;;;;;5.03;3.80;;;10.80;83.10;;;;;;4971944;28;20468;-89
2023/04/05 11:50:40;;;;;;;4.93;4.07;;;10.80;83.40;;;;;;4967525;28;20423;-88
2023/04/05 11:53:10;;;;;;;6.80;4.07;;;10.90;83.70;;;;;;4983069;28;20541;-88
2023/04/05 11:55:37;;;;;;;5.80;4.60;;;10.90;83.80;;;;;;5015736;28;20461;-88
2023/04/05 11:58:28;;;;;;;5.43;4.40;;;11.00;83.40;;;;;;5039228;28;20430;-89
2023/04/05 12:00:59;;;;;;;5.00;4.17;;;11.00;83.70;;;;;;5029817;28;20513;-93
2023/04/05 12:03:29;;;;;;;5.97;5.10;;;11.00;83.00;;;;;;5023987;28;20415;-91
2023/04/05 12:05:59;;;;;;;7.23;5.07;;;11.00;82.20;;;;;;5011108;28;20514;-88
2023/04/05 12:08:49;;;;;;;6.60;4.60;;;11.10;81.50;;;;;;5023086;28;20478;-87
2023/04/05 12:11:26;;;;;;;6.73;4.80;;;11.10;80.90;;;;;;5020846;28;20943;-87
2023/04/05 12:14:00;;;;;;;5.63;4.57;;;11.20;80.50;;;;;;5028383;28;20814;-86
2023/04/05 12:16:27;;;;;;;8.83;4.57;;;11.20;80.40;;;;;;5011031;28;20476;-87
2023/04/05 12:18:56;;;;;;;5.60;3.87;;;11.30;81.40;;;;;;5019673;28;20432;-87
2023/04/05 12:21:22;;;;;;;4.90;4.40;;;11.30;82.20;;;;;;5009326;28;20939;-88
2023/04/05 12:23:49;;;;;;;6.50;4.93;;;11.30;82.60;;;;;;5017219;28;20440;-88
2023/04/05 12:26:15;;;;;;;5.43;4.83;;;11.40;82.10;;;;;;4999880;28;20777;-89
2023/04/05 12:28:55;;;;;;;6.67;5.73;;;11.40;80.20;;;;;;5000104;28;21017;-89
2023/04/05 12:31:36;;;;;;;6.40;4.80;;;11.40;79.10;;;;;;5032319;28;20429;-87
2023/04/05 12:34:02;;;;;;;5.87;4.67;;;11.50;77.30;;;;;;5036983;28;20425;-88
2023/04/05 12:36:30;;;;;;;8.70;5.50;;;11.50;78.40;;;;;;5035683;28;20781;-88
2023/04/05 12:38:57;;;;;;;7.40;5.37;;;11.50;79.50;;;;;;5019540;28;20800;-88
2023/04/05 12:41:29;;;;;;;8.37;5.17;;;11.50;78.90;;;;;;5001266;28;20765;-89
2023/04/05 12:44:04;;;;;;;4.87;4.47;;;11.60;79.40;;;;;;5004947;28;20453;-89
2023/04/05 12:46:46;;;;;;;9.67;6.50;;;11.60;80.20;;;;;;5035934;28;20474;-88
2023/04/05 12:49:14;;;;;;;6.30;5.43;;;11.70;79.80;;;;;;5016754;28;20836;-86
2023/04/05 12:51:45;;;;;;;6.23;5.10;;;11.70;79.40;;;;;;5036043;28;20456;-87
2023/04/05 12:54:19;;;;;;;5.60;5.10;;;11.70;79.80;;;;;;5019089;28;20752;-88
2023/04/05 12:56:49;;;;;;;6.30;4.90;;;11.80;80.50;;;;;;5018617;28;20456;-86
2023/04/05 12:59:15;;;;;;;5.10;4.33;;;11.80;80.70;;;;;;5001916;28;20426;-89
2023/04/05 13:01:41;;;;;;;7.10;5.17;;;11.80;80.20;;;;;;5005598;28;20423;-88
2023/04/05 13:04:09;;;;;;;7.73;5.37;;;11.90;79.60;;;;;;4999437;28;20177;-87
2023/04/05 13:06:35;;;;;;;8.10;4.93;;;11.90;79.60;;;;;;5015796;28;20447;-87
2023/04/05 13:09:03;;;;;;;6.30;4.67;;;11.90;78.60;;;;;;4996418;28;20869;-88
2023/04/05 13:11:32;;;;;;;6.60;4.47;;;11.90;79.30;;;;;;4983133;28;20984;-90
2023/04/05 13:13:57;;;;;;;5.67;4.43;;;12.00;79.80;;;;;;5005172;28;20429;-89
2023/04/05 13:16:26;;;;;;;5.67;4.53;;;12.00;80.30;;;;;;5002169;28;20975;-89